KASW

Warsaw Municipal Airport

Warsaw, Indiana, USA
METAR KASW 230815Z AUTO 20010KT 1 3/4SM BR OVC003 01/01 A3025 RMK AO2
Observed Flight Rules
Feb-23 @ 08:15 UTC (5 minutes ago) Instrument Flight Rules
Wind Visibility Clouds Conditions
200° at 10 knots 1 3/4 miles
  • Overcast at 300' AGL
  • Mist
Temperatures Readings
Current 1°C / 34°F
Dewpoint 1°C / 34°F
Humidity 100%
Altimeter 30.25" Hg
Pressure 1024 hPa
Elevation 259
METAR KASW 230815Z AUTO 20010KT 1 3/4SM BR OVC003 01/01 A3025 RMK AO2
Observed Flight Rules
Feb-23 @ 08:15 UTC
(5 minutes ago)
LIFR
Wind Visibility
200° at 10 knots 1 3/4 miles
Clouds
  • Overcast at 300' AGL
Conditions
  • Mist
Temperature Dewpoint
1°C / 34°F 1°C / 34°F
Humidity Altimeter Pressure
100% 30.25" Hg 1024 hPa